Latest Weather Observations for Moranbah Airport

IDQ60801

Issued at 11:32 am EST Wednesday 27 May 2015 (issued every 30 minutes, with the page automatically refreshed every 10 minutes)

About weather observations | Map of weather stations | Latest weather observations for QLD | Other Formats
Station Details ID: 034035 Name: MORANBAH AIRPORT Lat: -22.06 Lon: 148.08 Height: 232.2 m
Data from the previous 72 hours. | See also: Recent months at Moranbah Airport
Date/Time
EST
Temp
°C
App
Temp
°C
Dew
Point
Rel
Hum
%
Delta-T
°C
Wind Press
QNH
hPa
Press
MSL
hPa
Rain
since 9 am
mm
Dir
 
Spd
km/h
Gust
km/h
Spd
kts
Gust
kts
27/11:30am 24.2 21.6 13.7 52 6.2 ESE 20 28 11 15 1022.3 1021.6 0.0
27/11:00am 23.3 21.4 14.3 57 5.3 ESE 17 26 9 14 1022.8 1022.1 0.0
27/10:30am 22.7 20.9 14.5 60 4.9 E 17 24 9 13 1023.2 1022.5 0.0
27/10:00am 22.4 20.5 15.3 64 4.3 ESE 19 24 10 13 1023.6 1022.9 0.0
27/09:30am 21.2 18.6 14.8 67 3.8 E 22 30 12 16 1023.6 1022.9 0.0
27/09:00am 20.0 17.7 14.6 71 3.2 ESE 20 26 11 14 1023.6 1022.9 0.0
27/08:30am 19.1 17.0 14.6 75 2.6 SE 19 24 10 13 1023.6 1022.9 0.0
27/08:00am 17.4 15.0 13.9 80 2.0 SE 19 24 10 13 1023.4 1022.7 0.0
27/07:30am 15.7 15.9 14.6 93 0.6 ESE 7 11 4 6 1023.2 1022.5 0.0
27/07:00am 11.8 12.1 10.9 94 0.5 CALM 0 7 0 4 1022.9 1022.2 0.0
27/06:30am 11.2 11.2 9.9 92 0.7 CALM 0 0 0 0 1022.6 1021.9 0.0
27/06:00am 12.2 11.5 11.3 94 0.5 SSE 6 7 3 4 1022.1 1021.4 0.0
27/05:30am 11.9 12.1 10.5 91 0.7 CALM 0 0 0 0 1022.1 1021.4 0.0
27/05:00am 12.9 11.4 12.0 94 0.5 SSE 11 11 6 6 1021.8 1021.1 0.0
27/04:30am 12.7 11.9 11.6 93 0.6 S 7 9 4 5 1021.9 1021.2 0.0
27/04:00am 12.7 13.1 11.4 92 0.7 CALM 0 0 0 0 1021.8 1021.1 0.0
27/03:30am 12.6 12.9 10.8 89 0.9 CALM 0 0 0 0 1021.9 1021.2 0.0
27/03:00am 12.5 11.2 10.0 85 1.3 SSE 7 9 4 5 1021.7 1021.0 0.0
27/02:30am 14.3 12.9 12.3 88 1.1 SSE 11 11 6 6 1021.7 1021.0 0.0
27/02:00am 14.8 13.5 12.5 86 1.3 SSE 11 13 6 7 1022.1 1021.4 0.0
27/01:30am 14.6 14.1 12.6 88 1.1 SSE 7 9 4 5 1022.3 1021.6 0.0
27/01:00am 14.8 13.4 12.1 84 1.5 SE 11 13 6 7 1022.4 1021.7 0.0
27/12:30am 15.6 14.4 12.7 83 1.6 SSE 11 13 6 7 1022.8 1022.1 0.0
27/12:00am 15.2 13.4 12.1 82 1.7 SSE 13 15 7 8 1022.7 1022.0 0.0
 
Date/Time
EST
Temp
°C
App
Temp
°C
Dew
Point
Rel
Hum
%
Delta-T
°C
Wind Press
QNH
hPa
Press
MSL
hPa
Rain
since 9 am
mm
Dir
 
Spd
km/h
Gust
km/h
Spd
kts
Gust
kts
26/11:30pm 14.3 13.3 10.3 77 2.1 S 6 7 3 4 1023.0 1022.3 0.0
26/11:00pm 15.9 14.8 12.1 78 2.1 ESE 9 11 5 6 1022.8 1022.1 0.0
26/10:30pm 16.0 14.1 11.8 76 2.3 E 13 15 7 8 1023.0 1022.3 0.0
26/10:00pm 16.2 14.5 11.2 72 2.7 ESE 11 11 6 6 1023.2 1022.5 0.0
26/09:30pm 17.0 16.1 11.3 69 3.1 ESE 7 9 4 5 1023.2 1022.5 0.0
26/09:00pm 17.6 16.0 11.6 68 3.3 ESE 11 13 6 7 1023.2 1022.5 0.0
26/08:30pm 17.9 15.8 11.0 64 3.8 ESE 13 15 7 8 1023.2 1022.5 0.0
26/08:00pm 19.2 17.2 11.5 61 4.3 ESE 13 15 7 8 1022.9 1022.2 0.0
26/07:30pm 20.6 18.3 11.8 57 4.9 ESE 15 19 8 10 1022.7 1022.0 0.0
26/07:00pm 21.5 18.9 12.1 55 5.3 SE 17 20 9 11 1022.5 1021.8 0.0
26/06:30pm 22.0 19.8 12.0 53 5.7 SE 15 20 8 11 1022.2 1021.5 0.0
26/06:00pm 22.5 19.6 12.2 52 5.9 SE 19 22 10 12 1022.0 1021.3 0.0
26/05:30pm 23.2 20.1 12.2 50 6.3 SE 20 28 11 15 1021.5 1020.8 0.0
26/05:00pm 23.9 20.7 11.9 47 6.9 SE 20 28 11 15 1021.2 1020.6 0.0
26/04:30pm 24.8 21.3 12.1 45 7.3 SE 22 30 12 16 1021.0 1020.4 0.0
26/04:00pm 26.1 23.0 12.2 42 8.1 SE 20 30 11 16 1020.7 1020.0 0.0
26/03:30pm 25.5 20.9 10.9 40 8.3 ESE 26 35 14 19 1020.8 1020.1 0.0
26/03:00pm 25.2 21.6 10.6 40 8.2 ESE 20 28 11 15 1020.9 1020.2 0.0
26/02:30pm 26.5 22.2 10.6 37 9.0 E 24 32 13 17 1021.1 1020.5 0.0
26/02:00pm 25.5 21.1 11.7 42 7.9 ESE 26 35 14 19 1021.4 1020.7 0.0
26/01:30pm 25.7 21.7 11.8 42 8.0 E 24 35 13 19 1021.8 1021.1 0.0
26/01:00pm 25.6 21.8 12.4 43 7.7 E 24 32 13 17 1022.5 1021.8 0.0
26/12:30pm 26.0 22.2 12.5 43 7.9 ESE 24 35 13 19 1023.1 1022.4 0.0
26/12:00pm 24.2 20.2 11.9 46 7.0 E 24 32 13 17 1023.6 1022.9 0.0
26/11:30am 24.5 20.5 13.1 49 6.7 ESE 26 37 14 20 1024.3 1023.6 0.0
26/11:00am 23.4 19.9 13.3 53 5.9 ESE 24 35 13 19 1025.0 1024.4 0.0
26/10:30am 22.5 19.5 13.8 58 5.1 SE 22 33 12 18 1025.6 1025.0 0.0
26/10:00am 21.6 18.4 14.3 63 4.3 ESE 24 30 13 16 1026.1 1025.4 0.0
26/09:30am 20.1 16.0 13.8 67 3.7 ESE 28 35 15 19 1026.2 1025.5 0.0
26/09:00am 19.0 15.2 13.6 71 3.1 ESE 26 33 14 18 1026.2 1025.5 0.0
26/08:30am 18.1 14.3 13.6 75 2.6 SE 26 33 14 18 1026.1 1025.4 0.0
26/08:00am 17.0 13.5 13.3 79 2.1 SE 24 30 13 16 1025.9 1025.2 0.0
26/07:30am 15.7 13.2 13.4 86 1.3 SE 19 24 10 13 1025.6 1025.0 0.0
26/07:00am 14.7 12.5 13.2 91 0.8 SE 17 20 9 11 1025.5 1024.9 0.0
26/06:30am 14.3 11.9 12.7 90 0.9 SE 17 20 9 11 1025.5 1024.9 0.0
26/06:00am 14.7 12.0 12.9 89 1.0 SE 19 22 10 12 1025.4 1024.8 0.0
26/05:30am 15.0 11.8 13.2 89 1.0 SE 22 26 12 14 1025.2 1024.6 0.0
26/05:00am 15.3 12.5 13.1 87 1.2 SE 20 24 11 13 1025.0 1024.4 0.0
26/04:30am 15.6 12.8 13.1 85 1.4 SE 20 24 11 13 1024.8 1024.2 0.0
26/04:00am 16.5 13.3 13.2 81 1.9 SE 22 28 12 15 1025.0 1024.4 0.0
26/03:30am 17.0 14.6 13.9 82 1.8 SE 19 26 10 14 1025.1 1024.5 0.0
26/03:00am 16.7 15.1 13.8 83 1.7 SE 15 19 8 10 1025.2 1024.6 0.0
26/02:30am 16.2 15.3 13.7 85 1.4 SE 11 13 6 7 1025.5 1024.9 0.0
26/02:00am 15.7 14.2 13.2 85 1.4 SE 13 15 7 8 1025.4 1024.8 0.0
26/01:30am 16.1 14.8 13.8 86 1.3 SSE 13 17 7 9 1025.7 1025.1 0.0
26/01:00am 14.7 13.0 12.6 87 1.2 SE 13 15 7 8 1025.7 1025.1 0.0
26/12:30am 15.5 13.9 12.8 84 1.5 SSE 13 15 7 8 1025.6 1025.0 0.0
26/12:00am 15.8 14.0 13.3 85 1.4 SSE 15 17 8 9 1025.6 1025.0 0.0
 
Date/Time
EST
Temp
°C
App
Temp
°C
Dew
Point
Rel
Hum
%
Delta-T
°C
Wind Press
QNH
hPa
Press
MSL
hPa
Rain
since 9 am
mm
Dir
 
Spd
km/h
Gust
km/h
Spd
kts
Gust
kts
25/11:30pm 15.3 14.3 12.4 83 1.6 SE 9 13 5 7 1025.5 1024.9 0.0
25/11:00pm 16.5 15.4 13.0 80 2.0 ESE 11 13 6 7 1025.6 1025.0 0.0
25/10:30pm 17.5 16.2 13.6 78 2.2 ESE 13 17 7 9 1025.9 1025.2 0.0
25/10:00pm 18.3 17.0 13.8 75 2.6 SE 13 15 7 8 1025.9 1025.2 0.0
25/09:30pm 18.3 17.5 14.0 76 2.5 SE 11 13 6 7 1026.2 1025.5 0.0
25/09:00pm 18.1 17.4 14.2 78 2.3 SE 11 13 6 7 1026.1 1025.4 0.0
25/08:30pm 17.6 16.2 13.5 77 2.3 SSE 13 15 7 8 1026.0 1025.3 0.0
25/08:00pm 18.0 16.4 12.9 72 2.9 SE 13 15 7 8 1025.6 1025.0 0.0
25/07:30pm 19.6 18.2 13.3 67 3.6 ESE 13 17 7 9 1025.1 1024.5 0.0
25/07:00pm 20.8 17.7 13.5 63 4.2 ESE 22 30 12 16 1024.6 1023.9 0.0
25/06:30pm 21.7 18.9 13.1 58 5.0 ESE 20 30 11 16 1024.3 1023.6 0.0
25/06:00pm 22.5 18.5 13.0 55 5.5 ESE 26 35 14 19 1023.7 1023.0 0.0
25/05:30pm 23.3 19.6 12.6 51 6.2 E 24 32 13 17 1023.6 1022.9 0.0
25/05:00pm 23.6 20.0 12.9 51 6.2 ESE 24 35 13 19 1023.3 1022.6 0.0
25/04:30pm 23.8 20.1 12.8 50 6.4 E 24 32 13 17 1023.3 1022.6 0.0
25/04:00pm 23.4 19.9 13.3 53 5.9 ESE 24 32 13 17 1023.3 1022.6 0.0
25/03:30pm 24.2 20.7 13.4 51 6.4 E 24 35 13 19 1023.3 1022.6 0.0
25/03:00pm 24.5 21.6 14.0 52 6.2 ESE 22 32 12 17 1023.6 1022.9 0.0
25/02:30pm 24.4 21.0 13.6 51 6.4 ESE 24 35 13 19 1023.6 1022.9 0.0
25/02:00pm 24.7 20.9 13.6 50 6.5 ESE 26 33 14 18 1023.7 1023.0 0.0
25/01:30pm 24.6 20.8 13.5 50 6.5 ESE 26 33 14 18 1024.2 1023.5 0.0
25/01:00pm 24.2 20.7 13.4 51 6.3 ESE 24 33 13 18 1024.7 1024.1 0.0
25/12:30pm 24.0 20.4 13.2 50 6.3 ESE 24 35 13 19 1025.0 1024.4 0.0
25/12:00pm 22.6 18.6 13.1 55 5.5 E 26 39 14 21 1025.5 1024.9 0.0
25/11:30am 22.7 18.8 13.2 55 5.5 SE 26 33 14 18 1026.2 1025.5 0.0
25/11:00am 22.4 18.6 13.5 57 5.2 ESE 26 35 14 19 1026.3 1025.6 0.0
25/10:30am 21.8 17.7 13.9 61 4.6 SE 28 35 15 19 1026.7 1026.0 0.0
25/10:00am 20.6 15.7 13.8 65 3.9 ESE 32 39 17 21 1027.0 1026.3 0.0
25/09:30am 19.8 15.8 14.0 69 3.4 SE 28 37 15 20 1027.4 1026.7 0.0
25/09:00am 17.8 14.6 13.1 74 2.7 SE 22 30 12 16 1027.6 1026.9 0.0
25/08:30am 17.6 14.3 12.9 74 2.7 SE 22 28 12 15 1027.5 1026.8 0.0
25/08:00am 16.0 12.4 11.8 76 2.3 SE 22 28 12 15 1027.3 1026.6 0.0
25/07:30am 15.5 12.9 11.9 79 2.0 ESE 17 20 9 11 1026.6 1025.9 0.0
25/07:00am 14.5 10.8 11.5 82 1.6 SE 22 28 12 15 1026.6 1025.9 0.0
25/06:30am 13.5 10.2 11.0 85 1.3 SE 19 22 10 12 1026.1 1025.4 0.0
25/06:00am 13.1 9.5 10.5 84 1.4 SE 20 22 11 12 1025.2 1024.6 0.0
25/05:30am 13.3 9.7 10.5 83 1.5 SE 20 22 11 12 1025.3 1024.7 0.0
25/05:00am 13.3 9.9 10.5 83 1.5 SE 19 20 10 11 1024.8 1024.2 0.0
25/04:30am 14.3 10.9 11.1 81 1.7 SE 20 24 11 13 1024.8 1024.2 0.0
25/04:00am 14.8 11.6 11.4 80 1.8 SE 19 22 10 12 1025.0 1024.4 0.0
25/03:30am 15.4 12.0 11.4 77 2.2 SE 20 26 11 14 1024.9 1024.3 0.0
25/03:00am 16.4 13.3 12.2 76 2.3 ESE 20 24 11 13 1025.3 1024.7 0.0
25/02:30am 15.7 12.5 11.9 78 2.1 SE 20 26 11 14 1025.3 1024.7 0.0
25/02:00am 15.9 13.3 11.9 77 2.2 SE 17 22 9 12 1025.3 1024.7 0.0
25/01:30am 16.7 14.3 12.7 77 2.2 SE 17 20 9 11 1025.6 1025.0 0.0
25/01:00am 16.0 14.3 12.6 80 1.9 ESE 13 17 7 9 1025.7 1025.1 0.0
25/12:30am 16.0 14.3 12.4 79 2.0 ESE 13 17 7 9 1025.5 1024.9 0.0
25/12:00am 16.6 14.2 12.6 77 2.2 ESE 17 20 9 11 1025.5 1024.9 0.0
 
Date/Time
EST
Temp
°C
App
Temp
°C
Dew
Point
Rel
Hum
%
Delta-T
°C
Wind Press
QNH
hPa
Press
MSL
hPa
Rain
since 9 am
mm
Dir
 
Spd
km/h
Gust
km/h
Spd
kts
Gust
kts
24/11:30pm 15.6 13.4 12.2 80 1.9 SE 15 17 8 9 1026.3 1025.6 0.0
24/11:00pm 15.0 13.2 11.0 77 2.1 SE 11 13 6 7 1026.4 1025.7 0.0
24/10:30pm 17.2 15.1 12.5 74 2.6 ESE 15 19 8 10 1026.2 1025.5 0.0
24/10:00pm 18.1 16.0 12.5 70 3.1 ESE 15 20 8 11 1026.0 1025.3 0.0
24/09:30pm 18.9 16.2 12.9 68 3.4 E 19 24 10 13 1025.4 1024.8 0.0
24/09:00pm 19.4 17.1 13.1 67 3.6 E 17 20 9 11 1025.3 1024.7 0.0
24/08:30pm 20.3 16.7 13.0 63 4.2 E 24 32 13 17 1025.2 1024.6 0.0
24/08:00pm 21.3 17.4 13.2 60 4.7 E 26 35 14 19 1025.1 1024.5 0.0
24/07:30pm 21.6 19.0 13.2 59 4.9 E 19 26 10 14 1024.8 1024.2 0.0
24/07:00pm 22.1 19.4 12.9 56 5.3 E 19 26 10 14 1024.4 1023.7 0.0
24/06:30pm 22.3 19.1 13.1 56 5.3 ESE 22 32 12 17 1023.9 1023.2 0.0
24/06:00pm 22.6 19.0 13.1 55 5.5 ESE 24 32 13 17 1023.7 1023.0 0.0
24/05:30pm 22.7 18.9 13.5 56 5.4 ESE 26 33 14 18 1023.4 1022.7 0.0
24/05:00pm 23.0 19.2 13.5 55 5.5 ESE 26 39 14 21 1023.1 1022.4 0.0
24/04:30pm 23.3 19.1 13.5 54 5.7 E 28 35 15 19 1022.7 1022.0 0.0
24/04:00pm 23.9 18.8 13.2 51 6.2 E 32 39 17 21 1022.4 1021.7 0.0
24/03:30pm 24.1 19.7 13.0 50 6.5 E 28 37 15 20 1022.1 1021.4 0.0
24/03:00pm 24.1 19.0 13.0 50 6.5 ESE 32 41 17 22 1021.9 1021.2 0.0
24/02:30pm 25.0 20.3 13.2 48 6.9 E 30 43 16 23 1021.9 1021.2 0.0
24/02:00pm 25.9 21.6 13.1 45 7.5 ESE 28 39 15 21 1021.9 1021.2 0.0
24/01:30pm 24.6 20.2 12.9 48 6.8 ESE 28 35 15 19 1022.2 1021.5 0.0
24/01:00pm 24.7 19.9 13.0 48 6.8 E 30 43 16 23 1022.3 1021.6 0.0
24/12:30pm 25.4 20.9 12.6 45 7.5 E 28 39 15 21 1022.8 1022.1 0.0
24/12:00pm 24.6 19.1 12.5 46 7.0 E 33 44 18 24 1023.3 1022.6 0.0

Other Formats:

Comma delimited format used in spreadsheet applications
http://www.bom.gov.au/fwo/IDQ60801/IDQ60801.94397.axf

JavaScript Object Notation format (JSON) in row-major order
http://www.bom.gov.au/fwo/IDQ60801/IDQ60801.94397.json